sensor_id;sensor_type;location;lat;lon;timestamp;temperature;humidity
14172;DHT22;7165;52.388;4.928;2024-03-02T00:01:15;9.60;99.90
14172;DHT22;7165;52.388;4.928;2024-03-02T00:03:42;9.50;99.90
14172;DHT22;7165;52.388;4.928;2024-03-02T00:06:09;9.50;99.90
14172;DHT22;7165;52.388;4.928;2024-03-02T00:08:37;9.50;99.90
14172;DHT22;7165;52.388;4.928;2024-03-02T00:11:04;9.50;99.90
14172;DHT22;7165;52.388;4.928;2024-03-02T00:13:31;9.40;99.90
14172;DHT22;7165;52.388;4.928;2024-03-02T00:15:58;9.40;99.90
14172;DHT22;7165;52.388;4.928;2024-03-02T00:18:27;9.30;99.90
14172;DHT22;7165;52.388;4.928;2024-03-02T00:20:56;9.10;99.90
14172;DHT22;7165;52.388;4.928;2024-03-02T00:23:24;9.00;99.90
14172;DHT22;7165;52.388;4.928;2024-03-02T00:25:51;8.90;99.90
14172;DHT22;7165;52.388;4.928;2024-03-02T00:28:20;8.80;99.90
14172;DHT22;7165;52.388;4.928;2024-03-02T00:30:58;8.70;99.90
14172;DHT22;7165;52.388;4.928;2024-03-02T00:33:31;8.60;99.90
14172;DHT22;7165;52.388;4.928;2024-03-02T00:35:59;8.50;99.90
14172;DHT22;7165;52.388;4.928;2024-03-02T00:38:26;8.40;99.90
14172;DHT22;7165;52.388;4.928;2024-03-02T00:40:54;8.30;99.90
14172;DHT22;7165;52.388;4.928;2024-03-02T00:43:47;8.20;99.90
14172;DHT22;7165;52.388;4.928;2024-03-02T00:46:19;8.10;99.90
14172;DHT22;7165;52.388;4.928;2024-03-02T00:48:53;8.00;99.90
14172;DHT22;7165;52.388;4.928;2024-03-02T00:51:21;7.90;99.90
14172;DHT22;7165;52.388;4.928;2024-03-02T00:53:49;7.90;99.90
14172;DHT22;7165;52.388;4.928;2024-03-02T00:56:16;7.80;99.90
14172;DHT22;7165;52.388;4.928;2024-03-02T00:58:43;7.80;99.90
14172;DHT22;7165;52.388;4.928;2024-03-02T01:01:10;7.80;99.90
14172;DHT22;7165;52.388;4.928;2024-03-02T01:03:37;7.70;99.90
14172;DHT22;7165;52.388;4.928;2024-03-02T01:06:06;7.70;99.90
14172;DHT22;7165;52.388;4.928;2024-03-02T01:08:34;7.60;99.90
14172;DHT22;7165;52.388;4.928;2024-03-02T01:11:01;7.60;99.90
14172;DHT22;7165;52.388;4.928;2024-03-02T01:13:28;7.60;99.90
14172;DHT22;7165;52.388;4.928;2024-03-02T01:15:55;7.60;99.90
14172;DHT22;7165;52.388;4.928;2024-03-02T01:18:21;7.50;99.90
14172;DHT22;7165;52.388;4.928;2024-03-02T01:20:49;7.50;99.90
14172;DHT22;7165;52.388;4.928;2024-03-02T01:23:18;7.50;99.90
14172;DHT22;7165;52.388;4.928;2024-03-02T01:25:46;7.40;99.90
14172;DHT22;7165;52.388;4.928;2024-03-02T01:28:13;7.40;99.90
14172;DHT22;7165;52.388;4.928;2024-03-02T01:30:40;7.40;99.90
14172;DHT22;7165;52.388;4.928;2024-03-02T01:33:07;7.40;99.90
14172;DHT22;7165;52.388;4.928;2024-03-02T01:35:34;7.30;99.90
14172;DHT22;7165;52.388;4.928;2024-03-02T01:38:01;7.30;99.90
14172;DHT22;7165;52.388;4.928;2024-03-02T01:40:29;7.30;99.90
14172;DHT22;7165;52.388;4.928;2024-03-02T01:42:56;7.30;99.90
14172;DHT22;7165;52.388;4.928;2024-03-02T01:45:24;7.30;99.90
14172;DHT22;7165;52.388;4.928;2024-03-02T01:47:51;7.30;99.90
14172;DHT22;7165;52.388;4.928;2024-03-02T01:50:25;7.30;99.90
14172;DHT22;7165;52.388;4.928;2024-03-02T01:52:53;7.20;99.90
14172;DHT22;7165;52.388;4.928;2024-03-02T01:55:20;7.20;99.90
14172;DHT22;7165;52.388;4.928;2024-03-02T01:57:48;7.20;99.90
14172;DHT22;7165;52.388;4.928;2024-03-02T02:00:16;7.20;99.90
14172;DHT22;7165;52.388;4.928;2024-03-02T02:02:44;7.20;99.90
14172;DHT22;7165;52.388;4.928;2024-03-02T02:05:11;7.20;99.90
14172;DHT22;7165;52.388;4.928;2024-03-02T02:07:38;7.20;99.90
14172;DHT22;7165;52.388;4.928;2024-03-02T02:10:05;7.20;99.90
14172;DHT22;7165;52.388;4.928;2024-03-02T02:12:32;7.20;99.90
14172;DHT22;7165;52.388;4.928;2024-03-02T02:15:00;7.20;99.90
14172;DHT22;7165;52.388;4.928;2024-03-02T02:17:27;7.20;99.90
14172;DHT22;7165;52.388;4.928;2024-03-02T02:19:54;7.20;99.90
14172;DHT22;7165;52.388;4.928;2024-03-02T02:22:22;7.10;99.90
14172;DHT22;7165;52.388;4.928;2024-03-02T02:24:49;7.20;99.90
14172;DHT22;7165;52.388;4.928;2024-03-02T02:27:16;7.20;99.90
14172;DHT22;7165;52.388;4.928;2024-03-02T02:29:43;7.10;99.90
14172;DHT22;7165;52.388;4.928;2024-03-02T02:32:10;7.20;99.90
14172;DHT22;7165;52.388;4.928;2024-03-02T02:34:37;7.10;99.90
14172;DHT22;7165;52.388;4.928;2024-03-02T02:37:04;7.20;99.90
14172;DHT22;7165;52.388;4.928;2024-03-02T02:39:32;7.20;99.90
14172;DHT22;7165;52.388;4.928;2024-03-02T02:41:59;7.20;99.90
14172;DHT22;7165;52.388;4.928;2024-03-02T02:44:28;7.10;99.90
14172;DHT22;7165;52.388;4.928;2024-03-02T02:46:55;7.20;99.90
14172;DHT22;7165;52.388;4.928;2024-03-02T02:49:22;7.20;99.90
14172;DHT22;7165;52.388;4.928;2024-03-02T02:51:49;7.20;99.90
14172;DHT22;7165;52.388;4.928;2024-03-02T02:54:16;7.20;99.90
14172;DHT22;7165;52.388;4.928;2024-03-02T02:56:44;7.20;99.90
14172;DHT22;7165;52.388;4.928;2024-03-02T02:59:11;7.20;99.90
14172;DHT22;7165;52.388;4.928;2024-03-02T03:01:38;7.20;99.90
14172;DHT22;7165;52.388;4.928;2024-03-02T03:04:05;7.20;99.90
14172;DHT22;7165;52.388;4.928;2024-03-02T03:06:32;7.20;99.90
14172;DHT22;7165;52.388;4.928;2024-03-02T03:08:59;7.20;99.90
14172;DHT22;7165;52.388;4.928;2024-03-02T03:11:26;7.20;99.90
14172;DHT22;7165;52.388;4.928;2024-03-02T03:13:54;7.20;99.90
14172;DHT22;7165;52.388;4.928;2024-03-02T03:16:21;7.20;99.90
14172;DHT22;7165;52.388;4.928;2024-03-02T03:18:48;7.20;99.90
14172;DHT22;7165;52.388;4.928;2024-03-02T03:21:17;7.20;99.90
14172;DHT22;7165;52.388;4.928;2024-03-02T03:23:44;7.20;99.90
14172;DHT22;7165;52.388;4.928;2024-03-02T03:26:10;7.20;99.90
14172;DHT22;7165;52.388;4.928;2024-03-02T03:28:37;7.20;99.90
14172;DHT22;7165;52.388;4.928;2024-03-02T03:31:06;7.20;99.90
14172;DHT22;7165;52.388;4.928;2024-03-02T03:33:32;7.20;99.90
14172;DHT22;7165;52.388;4.928;2024-03-02T03:36:00;7.10;99.90
14172;DHT22;7165;52.388;4.928;2024-03-02T03:38:28;7.10;99.90
14172;DHT22;7165;52.388;4.928;2024-03-02T03:40:55;7.10;99.90
14172;DHT22;7165;52.388;4.928;2024-03-02T03:43:22;7.10;99.90
14172;DHT22;7165;52.388;4.928;2024-03-02T03:45:49;7.10;99.90
14172;DHT22;7165;52.388;4.928;2024-03-02T03:48:17;7.10;99.90
14172;DHT22;7165;52.388;4.928;2024-03-02T03:50:44;7.00;99.90
14172;DHT22;7165;52.388;4.928;2024-03-02T03:53:11;7.10;99.90
14172;DHT22;7165;52.388;4.928;2024-03-02T03:55:38;7.10;99.90
14172;DHT22;7165;52.388;4.928;2024-03-02T03:58:04;7.10;99.90
14172;DHT22;7165;52.388;4.928;2024-03-02T04:00:31;7.00;99.90
14172;DHT22;7165;52.388;4.928;2024-03-02T04:02:58;7.10;99.90
14172;DHT22;7165;52.388;4.928;2024-03-02T04:05:26;7.10;99.90
14172;DHT22;7165;52.388;4.928;2024-03-02T04:07:53;7.10;99.90
14172;DHT22;7165;52.388;4.928;2024-03-02T04:10:20;7.10;99.90
14172;DHT22;7165;52.388;4.928;2024-03-02T04:12:47;7.00;99.90
14172;DHT22;7165;52.388;4.928;2024-03-02T04:15:15;7.10;99.90
14172;DHT22;7165;52.388;4.928;2024-03-02T04:17:44;7.00;99.90
14172;DHT22;7165;52.388;4.928;2024-03-02T04:20:11;7.00;99.90
14172;DHT22;7165;52.388;4.928;2024-03-02T04:22:40;7.10;99.90
14172;DHT22;7165;52.388;4.928;2024-03-02T04:25:07;7.10;99.90
14172;DHT22;7165;52.388;4.928;2024-03-02T04:27:35;7.10;99.90
14172;DHT22;7165;52.388;4.928;2024-03-02T04:30:02;7.10;99.90
14172;DHT22;7165;52.388;4.928;2024-03-02T04:32:30;7.10;99.90
14172;DHT22;7165;52.388;4.928;2024-03-02T04:34:57;7.10;99.90
14172;DHT22;7165;52.388;4.928;2024-03-02T04:37:24;7.20;99.90
14172;DHT22;7165;52.388;4.928;2024-03-02T04:39:52;7.20;99.90
14172;DHT22;7165;52.388;4.928;2024-03-02T04:42:19;7.20;99.90
14172;DHT22;7165;52.388;4.928;2024-03-02T04:44:46;7.20;99.90
14172;DHT22;7165;52.388;4.928;2024-03-02T04:47:13;7.20;99.90
14172;DHT22;7165;52.388;4.928;2024-03-02T04:49:39;7.10;99.90
14172;DHT22;7165;52.388;4.928;2024-03-02T04:52:06;7.10;99.90
14172;DHT22;7165;52.388;4.928;2024-03-02T04:54:33;7.10;99.90
14172;DHT22;7165;52.388;4.928;2024-03-02T04:57:22;7.10;99.90
14172;DHT22;7165;52.388;4.928;2024-03-02T04:59:48;7.00;99.90
14172;DHT22;7165;52.388;4.928;2024-03-02T05:02:15;7.00;99.90
14172;DHT22;7165;52.388;4.928;2024-03-02T05:04:42;7.00;99.90
14172;DHT22;7165;52.388;4.928;2024-03-02T05:07:08;7.00;99.90
14172;DHT22;7165;52.388;4.928;2024-03-02T05:09:35;6.90;99.90
14172;DHT22;7165;52.388;4.928;2024-03-02T05:12:02;6.90;99.90
14172;DHT22;7165;52.388;4.928;2024-03-02T05:14:50;6.90;99.90
14172;DHT22;7165;52.388;4.928;2024-03-02T05:17:16;6.80;99.90
14172;DHT22;7165;52.388;4.928;2024-03-02T05:19:43;6.70;99.90
14172;DHT22;7165;52.388;4.928;2024-03-02T05:22:10;6.70;99.90
14172;DHT22;7165;52.388;4.928;2024-03-02T05:24:37;6.70;99.90
14172;DHT22;7165;52.388;4.928;2024-03-02T05:27:05;6.70;99.90
14172;DHT22;7165;52.388;4.928;2024-03-02T05:29:33;6.70;99.90
14172;DHT22;7165;52.388;4.928;2024-03-02T05:32:01;6.60;99.90
14172;DHT22;7165;52.388;4.928;2024-03-02T05:34:28;6.60;99.90
14172;DHT22;7165;52.388;4.928;2024-03-02T05:36:56;6.60;99.90
14172;DHT22;7165;52.388;4.928;2024-03-02T05:39:23;6.60;99.90
14172;DHT22;7165;52.388;4.928;2024-03-02T05:41:50;6.50;99.90
14172;DHT22;7165;52.388;4.928;2024-03-02T05:44:17;6.50;99.90
14172;DHT22;7165;52.388;4.928;2024-03-02T05:46:45;6.40;99.90
14172;DHT22;7165;52.388;4.928;2024-03-02T05:49:13;6.40;99.90
14172;DHT22;7165;52.388;4.928;2024-03-02T05:51:40;6.40;99.90
14172;DHT22;7165;52.388;4.928;2024-03-02T05:54:07;6.40;99.90
14172;DHT22;7165;52.388;4.928;2024-03-02T05:56:34;6.30;99.90
14172;DHT22;7165;52.388;4.928;2024-03-02T05:59:01;6.30;99.90
14172;DHT22;7165;52.388;4.928;2024-03-02T06:01:38;6.30;99.90
14172;DHT22;7165;52.388;4.928;2024-03-02T06:04:05;6.30;99.90
14172;DHT22;7165;52.388;4.928;2024-03-02T06:06:33;6.30;99.90
14172;DHT22;7165;52.388;4.928;2024-03-02T06:09:00;6.40;99.90
14172;DHT22;7165;52.388;4.928;2024-03-02T06:11:28;6.40;99.90
14172;DHT22;7165;52.388;4.928;2024-03-02T06:13:55;6.30;99.90
14172;DHT22;7165;52.388;4.928;2024-03-02T06:16:22;6.40;99.90
14172;DHT22;7165;52.388;4.928;2024-03-02T06:18:49;6.40;99.90
14172;DHT22;7165;52.388;4.928;2024-03-02T06:21:15;6.40;99.90
14172;DHT22;7165;52.388;4.928;2024-03-02T06:23:45;6.40;99.90
14172;DHT22;7165;52.388;4.928;2024-03-02T06:26:12;6.40;99.90
14172;DHT22;7165;52.388;4.928;2024-03-02T06:28:39;6.40;99.90
14172;DHT22;7165;52.388;4.928;2024-03-02T06:31:05;6.50;99.90
14172;DHT22;7165;52.388;4.928;2024-03-02T06:33:33;6.40;99.90
14172;DHT22;7165;52.388;4.928;2024-03-02T06:35:59;6.50;99.90
14172;DHT22;7165;52.388;4.928;2024-03-02T06:38:26;6.50;99.90
14172;DHT22;7165;52.388;4.928;2024-03-02T06:40:54;6.50;99.90
14172;DHT22;7165;52.388;4.928;2024-03-02T06:43:21;6.60;99.90
14172;DHT22;7165;52.388;4.928;2024-03-02T06:45:49;6.60;99.90
14172;DHT22;7165;52.388;4.928;2024-03-02T06:48:16;6.60;99.90
14172;DHT22;7165;52.388;4.928;2024-03-02T06:50:45;6.70;99.90
14172;DHT22;7165;52.388;4.928;2024-03-02T06:53:12;6.80;99.90
14172;DHT22;7165;52.388;4.928;2024-03-02T06:55:39;6.90;99.90
14172;DHT22;7165;52.388;4.928;2024-03-02T06:58:07;6.90;99.90
14172;DHT22;7165;52.388;4.928;2024-03-02T07:00:34;6.90;99.90
14172;DHT22;7165;52.388;4.928;2024-03-02T07:03:02;6.90;99.90
14172;DHT22;7165;52.388;4.928;2024-03-02T07:05:29;7.00;99.90
14172;DHT22;7165;52.388;4.928;2024-03-02T07:07:56;7.00;99.90
14172;DHT22;7165;52.388;4.928;2024-03-02T07:10:22;7.00;99.90
14172;DHT22;7165;52.388;4.928;2024-03-02T07:12:49;7.10;99.90
14172;DHT22;7165;52.388;4.928;2024-03-02T07:15:18;7.10;99.90
14172;DHT22;7165;52.388;4.928;2024-03-02T07:18:12;7.10;99.90
14172;DHT22;7165;52.388;4.928;2024-03-02T07:20:40;7.20;99.90
14172;DHT22;7165;52.388;4.928;2024-03-02T07:23:07;7.20;99.90
14172;DHT22;7165;52.388;4.928;2024-03-02T07:25:34;7.20;99.90
14172;DHT22;7165;52.388;4.928;2024-03-02T07:28:01;7.20;99.90
14172;DHT22;7165;52.388;4.928;2024-03-02T07:30:29;7.20;99.90
14172;DHT22;7165;52.388;4.928;2024-03-02T07:32:56;7.20;99.90
14172;DHT22;7165;52.388;4.928;2024-03-02T07:35:24;7.20;99.90
14172;DHT22;7165;52.388;4.928;2024-03-02T07:37:53;7.20;99.90
14172;DHT22;7165;52.388;4.928;2024-03-02T07:40:19;7.20;99.90
14172;DHT22;7165;52.388;4.928;2024-03-02T07:42:45;7.30;99.90
14172;DHT22;7165;52.388;4.928;2024-03-02T07:45:12;7.20;99.90
14172;DHT22;7165;52.388;4.928;2024-03-02T07:47:41;7.30;99.90
14172;DHT22;7165;52.388;4.928;2024-03-02T07:50:08;7.30;99.90
14172;DHT22;7165;52.388;4.928;2024-03-02T07:52:35;7.40;99.90
14172;DHT22;7165;52.388;4.928;2024-03-02T07:55:02;7.30;99.90
14172;DHT22;7165;52.388;4.928;2024-03-02T07:57:29;7.30;99.90
14172;DHT22;7165;52.388;4.928;2024-03-02T07:59:56;7.30;99.90
14172;DHT22;7165;52.388;4.928;2024-03-02T08:02:25;7.40;99.90
14172;DHT22;7165;52.388;4.928;2024-03-02T08:04:53;7.40;99.90
14172;DHT22;7165;52.388;4.928;2024-03-02T08:07:20;7.50;99.90
14172;DHT22;7165;52.388;4.928;2024-03-02T08:09:47;7.50;99.90
14172;DHT22;7165;52.388;4.928;2024-03-02T08:12:14;7.60;99.90
14172;DHT22;7165;52.388;4.928;2024-03-02T08:14:40;7.70;99.90
14172;DHT22;7165;52.388;4.928;2024-03-02T08:17:07;7.70;99.90
14172;DHT22;7165;52.388;4.928;2024-03-02T08:19:35;7.70;99.90
14172;DHT22;7165;52.388;4.928;2024-03-02T08:22:03;7.80;99.90
14172;DHT22;7165;52.388;4.928;2024-03-02T08:24:30;7.80;99.90
14172;DHT22;7165;52.388;4.928;2024-03-02T08:26:57;7.80;99.90
14172;DHT22;7165;52.388;4.928;2024-03-02T08:29:24;7.90;99.90
14172;DHT22;7165;52.388;4.928;2024-03-02T08:31:51;7.90;99.90
14172;DHT22;7165;52.388;4.928;2024-03-02T08:34:17;8.00;99.90
14172;DHT22;7165;52.388;4.928;2024-03-02T08:36:45;8.00;99.90
14172;DHT22;7165;52.388;4.928;2024-03-02T08:39:14;8.10;99.90
14172;DHT22;7165;52.388;4.928;2024-03-02T08:41:41;8.10;99.90
14172;DHT22;7165;52.388;4.928;2024-03-02T08:44:09;8.10;99.90
14172;DHT22;7165;52.388;4.928;2024-03-02T08:46:36;8.20;99.90
14172;DHT22;7165;52.388;4.928;2024-03-02T08:49:03;8.20;99.90
14172;DHT22;7165;52.388;4.928;2024-03-02T08:51:30;8.30;99.90
14172;DHT22;7165;52.388;4.928;2024-03-02T08:53:57;8.30;99.90
14172;DHT22;7165;52.388;4.928;2024-03-02T08:56:26;8.40;99.90
14172;DHT22;7165;52.388;4.928;2024-03-02T08:58:53;8.40;99.90
14172;DHT22;7165;52.388;4.928;2024-03-02T09:01:20;8.50;99.90
14172;DHT22;7165;52.388;4.928;2024-03-02T09:03:47;8.50;99.90
14172;DHT22;7165;52.388;4.928;2024-03-02T09:06:15;8.60;99.90
14172;DHT22;7165;52.388;4.928;2024-03-02T09:08:43;8.60;99.90
14172;DHT22;7165;52.388;4.928;2024-03-02T09:11:10;8.70;99.90
14172;DHT22;7165;52.388;4.928;2024-03-02T09:13:39;8.80;99.90
14172;DHT22;7165;52.388;4.928;2024-03-02T09:16:06;8.80;99.90
14172;DHT22;7165;52.388;4.928;2024-03-02T09:18:36;8.90;99.90
14172;DHT22;7165;52.388;4.928;2024-03-02T09:21:04;9.00;99.90
14172;DHT22;7165;52.388;4.928;2024-03-02T09:23:31;9.00;99.90
14172;DHT22;7165;52.388;4.928;2024-03-02T09:25:58;9.10;99.90
14172;DHT22;7165;52.388;4.928;2024-03-02T09:28:25;9.10;99.90
14172;DHT22;7165;52.388;4.928;2024-03-02T09:30:53;9.20;99.90
14172;DHT22;7165;52.388;4.928;2024-03-02T09:33:20;9.30;99.90
14172;DHT22;7165;52.388;4.928;2024-03-02T09:35:47;9.40;99.90
14172;DHT22;7165;52.388;4.928;2024-03-02T09:38:15;9.40;99.90
14172;DHT22;7165;52.388;4.928;2024-03-02T09:40:42;9.50;99.90
14172;DHT22;7165;52.388;4.928;2024-03-02T09:43:09;9.50;99.90
14172;DHT22;7165;52.388;4.928;2024-03-02T09:45:36;9.60;99.90
14172;DHT22;7165;52.388;4.928;2024-03-02T09:48:05;9.60;99.90
14172;DHT22;7165;52.388;4.928;2024-03-02T09:50:32;9.60;99.90
14172;DHT22;7165;52.388;4.928;2024-03-02T09:53:00;9.70;99.90
14172;DHT22;7165;52.388;4.928;2024-03-02T09:55:27;9.70;99.90
14172;DHT22;7165;52.388;4.928;2024-03-02T09:57:54;9.80;99.90
14172;DHT22;7165;52.388;4.928;2024-03-02T10:00:21;9.80;99.90
14172;DHT22;7165;52.388;4.928;2024-03-02T10:02:48;9.90;99.90
14172;DHT22;7165;52.388;4.928;2024-03-02T10:05:25;10.00;99.90
14172;DHT22;7165;52.388;4.928;2024-03-02T10:07:59;10.10;99.90
14172;DHT22;7165;52.388;4.928;2024-03-02T10:10:34;10.20;99.90
14172;DHT22;7165;52.388;4.928;2024-03-02T10:13:05;10.30;99.90
14172;DHT22;7165;52.388;4.928;2024-03-02T10:15:33;10.30;99.90
14172;DHT22;7165;52.388;4.928;2024-03-02T10:17:59;10.40;99.90
14172;DHT22;7165;52.388;4.928;2024-03-02T10:20:28;10.40;99.90
14172;DHT22;7165;52.388;4.928;2024-03-02T10:22:55;10.40;99.90
14172;DHT22;7165;52.388;4.928;2024-03-02T10:25:29;10.40;99.90
14172;DHT22;7165;52.388;4.928;2024-03-02T10:27:57;10.50;99.90
14172;DHT22;7165;52.388;4.928;2024-03-02T10:30:24;10.60;99.90
14172;DHT22;7165;52.388;4.928;2024-03-02T10:32:51;10.70;99.90
14172;DHT22;7165;52.388;4.928;2024-03-02T10:35:19;10.80;99.90
14172;DHT22;7165;52.388;4.928;2024-03-02T10:37:48;10.90;99.90
14172;DHT22;7165;52.388;4.928;2024-03-02T10:40:15;10.90;99.90
14172;DHT22;7165;52.388;4.928;2024-03-02T10:42:41;11.00;99.90
14172;DHT22;7165;52.388;4.928;2024-03-02T10:45:08;11.10;99.90
14172;DHT22;7165;52.388;4.928;2024-03-02T10:47:35;11.10;99.90
14172;DHT22;7165;52.388;4.928;2024-03-02T10:50:03;11.20;99.90
14172;DHT22;7165;52.388;4.928;2024-03-02T10:52:33;11.20;99.90
14172;DHT22;7165;52.388;4.928;2024-03-02T10:55:01;11.20;99.90
14172;DHT22;7165;52.388;4.928;2024-03-02T10:57:33;11.20;99.90
14172;DHT22;7165;52.388;4.928;2024-03-02T11:00:05;11.20;99.90
14172;DHT22;7165;52.388;4.928;2024-03-02T11:02:33;11.20;99.90
14172;DHT22;7165;52.388;4.928;2024-03-02T11:05:01;11.20;99.90
14172;DHT22;7165;52.388;4.928;2024-03-02T11:07:34;11.40;99.90
14172;DHT22;7165;52.388;4.928;2024-03-02T11:10:03;11.50;99.90
14172;DHT22;7165;52.388;4.928;2024-03-02T11:12:35;11.60;99.90
14172;DHT22;7165;52.388;4.928;2024-03-02T11:15:03;11.70;99.90
14172;DHT22;7165;52.388;4.928;2024-03-02T11:17:31;11.80;99.90
14172;DHT22;7165;52.388;4.928;2024-03-02T11:19:58;11.90;99.90
14172;DHT22;7165;52.388;4.928;2024-03-02T11:22:25;11.90;99.90
14172;DHT22;7165;52.388;4.928;2024-03-02T11:24:52;12.00;99.90
14172;DHT22;7165;52.388;4.928;2024-03-02T11:30:02;12.10;99.90
14172;DHT22;7165;52.388;4.928;2024-03-02T11:32:28;12.10;99.90
14172;DHT22;7165;52.388;4.928;2024-03-02T11:34:55;12.10;99.90
14172;DHT22;7165;52.388;4.928;2024-03-02T11:37:22;12.10;99.90
14172;DHT22;7165;52.388;4.928;2024-03-02T11:39:49;12.10;99.90
14172;DHT22;7165;52.388;4.928;2024-03-02T11:42:16;12.10;99.90
14172;DHT22;7165;52.388;4.928;2024-03-02T11:44:44;12.20;99.90
14172;DHT22;7165;52.388;4.928;2024-03-02T11:47:13;12.30;99.90
14172;DHT22;7165;52.388;4.928;2024-03-02T11:49:44;12.40;99.90
14172;DHT22;7165;52.388;4.928;2024-03-02T11:52:12;12.50;99.90
14172;DHT22;7165;52.388;4.928;2024-03-02T11:54:39;12.70;99.90
14172;DHT22;7165;52.388;4.928;2024-03-02T11:57:12;12.80;99.90
14172;DHT22;7165;52.388;4.928;2024-03-02T11:59:38;13.00;99.90
14172;DHT22;7165;52.388;4.928;2024-03-02T12:02:06;13.10;99.90
14172;DHT22;7165;52.388;4.928;2024-03-02T12:04:34;13.10;99.90
14172;DHT22;7165;52.388;4.928;2024-03-02T12:07:01;13.10;99.90
14172;DHT22;7165;52.388;4.928;2024-03-02T12:09:27;13.10;99.90
14172;DHT22;7165;52.388;4.928;2024-03-02T12:12:01;13.20;99.90
14172;DHT22;7165;52.388;4.928;2024-03-02T12:14:28;13.20;99.90
14172;DHT22;7165;52.388;4.928;2024-03-02T12:16:55;13.30;99.90
14172;DHT22;7165;52.388;4.928;2024-03-02T12:19:24;13.40;99.90
14172;DHT22;7165;52.388;4.928;2024-03-02T12:21:52;13.40;99.90
14172;DHT22;7165;52.388;4.928;2024-03-02T12:24:18;13.40;99.90
14172;DHT22;7165;52.388;4.928;2024-03-02T12:26:45;13.40;99.90
14172;DHT22;7165;52.388;4.928;2024-03-02T12:29:13;13.40;99.90
14172;DHT22;7165;52.388;4.928;2024-03-02T12:31:40;13.40;99.90
14172;DHT22;7165;52.388;4.928;2024-03-02T12:34:08;13.40;99.90
14172;DHT22;7165;52.388;4.928;2024-03-02T12:36:37;13.50;99.90
14172;DHT22;7165;52.388;4.928;2024-03-02T12:39:05;13.60;99.90
14172;DHT22;7165;52.388;4.928;2024-03-02T12:41:31;13.70;99.90
14172;DHT22;7165;52.388;4.928;2024-03-02T12:43:58;13.70;99.90
14172;DHT22;7165;52.388;4.928;2024-03-02T12:46:25;13.70;99.90
14172;DHT22;7165;52.388;4.928;2024-03-02T12:48:51;13.70;99.90
14172;DHT22;7165;52.388;4.928;2024-03-02T12:51:18;13.70;99.90
14172;DHT22;7165;52.388;4.928;2024-03-02T12:53:45;13.70;99.90
14172;DHT22;7165;52.388;4.928;2024-03-02T12:56:13;13.60;99.90
14172;DHT22;7165;52.388;4.928;2024-03-02T12:58:40;13.60;99.90
14172;DHT22;7165;52.388;4.928;2024-03-02T13:01:07;13.50;99.90
14172;DHT22;7165;52.388;4.928;2024-03-02T13:03:35;13.50;99.90
14172;DHT22;7165;52.388;4.928;2024-03-02T13:06:01;13.40;99.90
14172;DHT22;7165;52.388;4.928;2024-03-02T13:08:28;13.40;99.90
14172;DHT22;7165;52.388;4.928;2024-03-02T13:10:55;13.40;99.90
14172;DHT22;7165;52.388;4.928;2024-03-02T13:13:23;13.50;99.90
14172;DHT22;7165;52.388;4.928;2024-03-02T13:15:50;13.60;99.90
14172;DHT22;7165;52.388;4.928;2024-03-02T13:18:21;13.70;99.90
14172;DHT22;7165;52.388;4.928;2024-03-02T13:20:47;13.70;99.90
14172;DHT22;7165;52.388;4.928;2024-03-02T13:23:14;13.70;99.90
14172;DHT22;7165;52.388;4.928;2024-03-02T13:25:41;13.70;99.90
14172;DHT22;7165;52.388;4.928;2024-03-02T13:28:08;13.70;99.90
14172;DHT22;7165;52.388;4.928;2024-03-02T13:30:36;13.60;99.90
14172;DHT22;7165;52.388;4.928;2024-03-02T13:33:04;13.70;99.90
14172;DHT22;7165;52.388;4.928;2024-03-02T13:35:30;13.70;99.90
14172;DHT22;7165;52.388;4.928;2024-03-02T13:37:57;13.80;99.90
14172;DHT22;7165;52.388;4.928;2024-03-02T13:40:24;14.00;99.90
14172;DHT22;7165;52.388;4.928;2024-03-02T13:42:50;14.00;99.90
14172;DHT22;7165;52.388;4.928;2024-03-02T13:45:19;14.00;99.90
14172;DHT22;7165;52.388;4.928;2024-03-02T13:47:47;14.20;99.90
14172;DHT22;7165;52.388;4.928;2024-03-02T13:50:14;14.30;99.90
14172;DHT22;7165;52.388;4.928;2024-03-02T13:52:40;14.40;99.90
14172;DHT22;7165;52.388;4.928;2024-03-02T13:55:08;14.50;99.90
14172;DHT22;7165;52.388;4.928;2024-03-02T13:57:35;14.40;99.90
14172;DHT22;7165;52.388;4.928;2024-03-02T14:00:01;14.30;99.90
14172;DHT22;7165;52.388;4.928;2024-03-02T14:02:35;14.20;99.90
14172;DHT22;7165;52.388;4.928;2024-03-02T14:05:04;14.20;99.90
14172;DHT22;7165;52.388;4.928;2024-03-02T14:07:30;14.30;99.90
14172;DHT22;7165;52.388;4.928;2024-03-02T14:09:57;14.40;99.90
14172;DHT22;7165;52.388;4.928;2024-03-02T14:12:24;14.40;99.90
14172;DHT22;7165;52.388;4.928;2024-03-02T14:14:51;14.40;99.90
14172;DHT22;7165;52.388;4.928;2024-03-02T14:17:20;14.30;99.90
14172;DHT22;7165;52.388;4.928;2024-03-02T14:19:47;14.20;99.90
14172;DHT22;7165;52.388;4.928;2024-03-02T14:22:16;14.10;99.90
14172;DHT22;7165;52.388;4.928;2024-03-02T14:24:43;14.00;99.90
14172;DHT22;7165;52.388;4.928;2024-03-02T14:27:09;13.90;99.90
14172;DHT22;7165;52.388;4.928;2024-03-02T14:29:36;13.90;99.90
14172;DHT22;7165;52.388;4.928;2024-03-02T14:32:05;14.00;99.90
14172;DHT22;7165;52.388;4.928;2024-03-02T14:34:32;14.10;99.90
14172;DHT22;7165;52.388;4.928;2024-03-02T14:36:58;14.10;99.90
14172;DHT22;7165;52.388;4.928;2024-03-02T14:39:26;14.00;99.90
14172;DHT22;7165;52.388;4.928;2024-03-02T14:41:53;14.00;99.90
14172;DHT22;7165;52.388;4.928;2024-03-02T14:44:21;14.00;99.90
14172;DHT22;7165;52.388;4.928;2024-03-02T14:46:47;14.00;99.90
14172;DHT22;7165;52.388;4.928;2024-03-02T14:49:15;13.80;99.90
14172;DHT22;7165;52.388;4.928;2024-03-02T14:51:43;13.80;99.90
14172;DHT22;7165;52.388;4.928;2024-03-02T14:54:10;13.70;99.90
14172;DHT22;7165;52.388;4.928;2024-03-02T14:56:38;13.60;99.90
14172;DHT22;7165;52.388;4.928;2024-03-02T14:59:04;13.40;99.90
14172;DHT22;7165;52.388;4.928;2024-03-02T15:01:31;13.20;99.90
14172;DHT22;7165;52.388;4.928;2024-03-02T15:03:58;13.10;99.90
14172;DHT22;7165;52.388;4.928;2024-03-02T15:06:25;13.00;99.90
14172;DHT22;7165;52.388;4.928;2024-03-02T15:08:51;13.00;99.90
14172;DHT22;7165;52.388;4.928;2024-03-02T15:11:20;12.80;99.90
14172;DHT22;7165;52.388;4.928;2024-03-02T15:13:48;12.80;99.90
14172;DHT22;7165;52.388;4.928;2024-03-02T15:16:15;12.70;99.90
14172;DHT22;7165;52.388;4.928;2024-03-02T15:18:42;12.70;99.90
14172;DHT22;7165;52.388;4.928;2024-03-02T15:21:08;12.70;99.90
14172;DHT22;7165;52.388;4.928;2024-03-02T15:23:35;12.70;99.90
14172;DHT22;7165;52.388;4.928;2024-03-02T15:26:02;12.60;99.90
14172;DHT22;7165;52.388;4.928;2024-03-02T15:28:28;12.60;99.90
14172;DHT22;7165;52.388;4.928;2024-03-02T15:30:56;12.60;99.90
14172;DHT22;7165;52.388;4.928;2024-03-02T15:33:23;12.60;99.90
14172;DHT22;7165;52.388;4.928;2024-03-02T15:35:56;12.70;99.90
14172;DHT22;7165;52.388;4.928;2024-03-02T15:38:24;12.70;99.90
14172;DHT22;7165;52.388;4.928;2024-03-02T15:40:50;12.70;99.90
14172;DHT22;7165;52.388;4.928;2024-03-02T15:43:17;12.70;99.90
14172;DHT22;7165;52.388;4.928;2024-03-02T15:45:44;12.60;99.90
14172;DHT22;7165;52.388;4.928;2024-03-02T15:48:12;12.60;99.90
14172;DHT22;7165;52.388;4.928;2024-03-02T15:50:38;12.60;99.90
14172;DHT22;7165;52.388;4.928;2024-03-02T15:53:05;12.60;99.90
14172;DHT22;7165;52.388;4.928;2024-03-02T15:55:32;12.60;99.90
14172;DHT22;7165;52.388;4.928;2024-03-02T15:57:59;12.50;99.90
14172;DHT22;7165;52.388;4.928;2024-03-02T16:00:26;12.60;99.90